首页
METAR-TAF:

METAR-TAF

机场 :

Kearney, 內布拉斯加州, 美国

纬度: 40-44N, 经度: 099-00W, 海拔: 649米

当前天气观测

该预报发布于8分钟前的15:25 UTC
风速7节,风向东北
温度 21°C
湿度 88%
气压 1023 hPa
能見度: 16.1公里
多云层高于1100英尺

METAR: KEAR 211525Z AUTO 04007KT 10SM BKN011 21/19 A3021 RMK AO2

时间: 10:33 (15:33 UTC)

预报

该预报发布于1小时和7分钟前的14:26 UTC
预报有效从21日的 14点(UTC)到 22日的 12点(UTC)
风速3节,风向多变
能見度: 10公里
散云层高于400英尺
短暂存在
从 21日的 14点(UTC)到 21日的 16点(UTC)
多云层高于400英尺
从 21日的 1600点(UTC)
风速5节,风向北转东北
能見度: 10公里
散云层高于1200英尺
从 21日的 1800点(UTC)
风速7节,风向东北
能見度: 10公里
少量云层高于1000英尺
多云层高于5000英尺
从 22日的 0100点(UTC)
风速3节,风向多变
能見度: 10公里
少量云层高于5000英尺
散云层高于25000英尺

TAF: KEAR 211426Z 2114/2212 VRB03KT P6SM SCT004 TEMPO 2114/2116 BKN004 FM211600 03005KT P6SM SCT012 FM211800 04007KT P6SM FEW010 BKN050 FM220100 VRB03KT P6SM FEW050 SCT250

超过4000个机场的气象观测和天气预报(METAR&TAF报告)。

可查询的气象台以黄色和红色小点在地图上表示。

将鼠标移到小点上方,可查看气象台名称。

然后点击查看天气观测和预报。

如需切换地图:点击带黑十字的绿色按钮放大地图;点击带横线的绿色按钮缩小地图;或者点击绿色箭头查看邻近地区的地图。


METAR-TAF: